createdAt,value
2022-11-17T00:02:24.187Z,14.68
2022-11-17T00:04:51.049Z,18.38
2022-11-17T00:07:17.971Z,15.77
2022-11-17T00:09:44.578Z,13.98
2022-11-17T00:12:32.892Z,19.85
2022-11-17T00:15:00.321Z,18.65
2022-11-17T00:17:27.383Z,16.90
2022-11-17T00:20:13.028Z,19.55
2022-11-17T00:22:39.910Z,19.20
2022-11-17T00:25:06.813Z,19.00
2022-11-17T00:27:33.594Z,14.30
2022-11-17T00:30:00.407Z,16.65
2022-11-17T00:32:45.671Z,16.08
2022-11-17T00:35:12.370Z,15.38
2022-11-17T00:38:00.866Z,15.35
2022-11-17T00:40:27.967Z,18.60
2022-11-17T00:42:54.671Z,17.35
2022-11-17T00:45:21.498Z,20.10
2022-11-17T00:47:48.387Z,20.95
2022-11-17T00:50:15.322Z,17.35
2022-11-17T00:52:42.341Z,17.20
2022-11-17T00:55:09.371Z,16.52
2022-11-17T00:57:36.066Z,18.92
2022-11-17T01:00:03.020Z,15.23
2022-11-17T01:02:29.837Z,15.70
2022-11-17T01:04:56.530Z,15.55
2022-11-17T01:07:23.639Z,14.95
2022-11-17T01:09:50.562Z,16.40
2022-11-17T01:12:17.189Z,12.90
2022-11-17T01:14:43.911Z,11.43
2022-11-17T01:17:10.742Z,15.10
2022-11-17T01:19:37.367Z,11.65
2022-11-17T01:22:04.177Z,12.38
2022-11-17T01:24:30.858Z,12.52
2022-11-17T01:26:57.560Z,12.48
2022-11-17T01:29:24.587Z,14.13
2022-11-17T01:31:52.606Z,12.15
2022-11-17T01:34:19.390Z,11.35
2022-11-17T01:37:05.141Z,14.88
2022-11-17T01:39:32.222Z,10.48
2022-11-17T01:42:04.094Z,13.00
2022-11-17T01:44:53.937Z,16.20
2022-11-17T01:47:48.803Z,12.10
2022-11-17T01:50:19.046Z,15.32
2022-11-17T01:52:48.988Z,14.25
2022-11-17T01:55:17.961Z,13.20
2022-11-17T01:57:57.669Z,12.15
2022-11-17T02:00:25.734Z,12.45
2022-11-17T02:02:53.572Z,16.45
2022-11-17T02:05:31.856Z,12.52
2022-11-17T02:08:02.030Z,12.25
2022-11-17T02:10:31.021Z,13.77
2022-11-17T02:12:59.141Z,12.82
2022-11-17T02:15:27.167Z,12.35
2022-11-17T02:17:54.312Z,13.77
2022-11-17T02:20:40.047Z,13.85
2022-11-17T02:23:48.758Z,12.75
2022-11-17T02:26:44.204Z,13.10
2022-11-17T02:29:37.167Z,14.55
2022-11-17T02:32:13.514Z,11.18
2022-11-17T02:35:12.646Z,13.52
2022-11-17T02:37:59.717Z,12.65
2022-11-17T02:40:32.884Z,11.07
2022-11-17T02:43:20.991Z,12.35
2022-11-17T02:45:57.939Z,13.23
2022-11-17T02:48:30.237Z,10.60
2022-11-17T02:50:58.922Z,13.60
2022-11-17T02:53:27.758Z,12.95
2022-11-17T02:55:55.721Z,11.68
2022-11-17T02:58:22.567Z,11.35
2022-11-17T03:00:59.121Z,13.48
2022-11-17T03:04:03.598Z,11.73
2022-11-17T03:06:39.395Z,14.95
2022-11-17T03:09:21.016Z,10.40
2022-11-17T03:12:16.736Z,12.27
2022-11-17T03:15:05.187Z,12.20
2022-11-17T03:17:53.349Z,14.05
2022-11-17T03:20:24.804Z,14.27
2022-11-17T03:23:03.314Z,13.27
2022-11-17T03:25:35.088Z,12.55
2022-11-17T03:28:08.074Z,12.48
2022-11-17T03:30:37.824Z,14.40
2022-11-17T03:33:15.494Z,12.40
2022-11-17T03:35:50.802Z,11.98
2022-11-17T03:38:22.163Z,15.20
2022-11-17T03:40:52.991Z,11.65
2022-11-17T03:43:21.665Z,13.63
2022-11-17T03:45:52.882Z,13.00
2022-11-17T03:48:29.410Z,9.35
2022-11-17T03:50:59.994Z,13.80
2022-11-17T03:53:26.970Z,14.13
2022-11-17T03:56:02.984Z,11.52
2022-11-17T03:58:34.123Z,10.30
2022-11-17T04:01:03.545Z,12.00
2022-11-17T04:03:32.797Z,13.30
2022-11-17T04:06:00.565Z,11.40
2022-11-17T04:08:30.947Z,10.77
2022-11-17T04:11:16.750Z,10.25
2022-11-17T04:14:02.317Z,11.88
2022-11-17T04:16:29.167Z,10.57
2022-11-17T04:18:58.984Z,11.70
2022-11-17T04:21:26.510Z,12.30
2022-11-17T04:23:53.354Z,9.73
2022-11-17T04:26:39.300Z,12.63
2022-11-17T04:29:06.179Z,11.32
2022-11-17T04:31:32.980Z,16.48
2022-11-17T04:34:01.857Z,10.55
2022-11-17T04:36:31.052Z,10.70
2022-11-17T04:39:00.061Z,12.23
2022-11-17T04:41:48.042Z,9.90
2022-11-17T04:44:17.094Z,13.43
2022-11-17T04:46:45.953Z,10.85
2022-11-17T04:49:14.650Z,11.43
2022-11-17T04:51:41.875Z,12.90
2022-11-17T04:54:10.471Z,15.52
2022-11-17T04:56:38.084Z,15.23
2022-11-17T04:59:05.413Z,14.52
2022-11-17T05:01:32.681Z,13.75
2022-11-17T05:04:10.631Z,16.90
2022-11-17T05:06:40.377Z,13.15
2022-11-17T05:09:12.605Z,22.92
2022-11-17T05:11:58.067Z,19.25
2022-11-17T05:14:26.099Z,18.17
2022-11-17T05:17:09.433Z,19.95
2022-11-17T05:19:40.797Z,15.73
2022-11-17T05:22:27.738Z,17.30
2022-11-17T05:25:10.151Z,15.75
2022-11-17T05:27:37.130Z,17.77
2022-11-17T05:30:06.640Z,17.80
2022-11-17T05:32:33.435Z,18.25
2022-11-17T05:35:00.792Z,15.88
2022-11-17T05:37:27.574Z,17.17
2022-11-17T05:39:54.595Z,15.32
2022-11-17T05:42:21.362Z,15.15
2022-11-17T05:44:49.119Z,14.50
2022-11-17T05:47:15.995Z,13.70
2022-11-17T05:49:42.667Z,13.57
2022-11-17T05:52:11.724Z,13.38
2022-11-17T05:54:42.245Z,12.18
2022-11-17T05:57:30.492Z,13.13
2022-11-17T06:00:05.669Z,12.52
2022-11-17T06:02:39.794Z,10.68
2022-11-17T06:05:07.934Z,12.95
2022-11-17T06:07:39.739Z,16.92
2022-11-17T06:10:06.972Z,12.93
2022-11-17T06:12:33.773Z,13.20
2022-11-17T06:15:00.555Z,11.18
2022-11-17T06:17:39.801Z,10.85
2022-11-17T06:20:15.735Z,10.73
2022-11-17T06:22:48.014Z,14.85
2022-11-17T06:25:15.740Z,14.07
2022-11-17T06:27:42.727Z,10.63
2022-11-17T06:30:10.358Z,14.02
2022-11-17T06:32:39.605Z,11.10
2022-11-17T06:35:08.815Z,12.80
2022-11-17T06:37:35.803Z,12.35
2022-11-17T06:40:02.569Z,15.10
2022-11-17T06:42:51.007Z,13.27
2022-11-17T06:45:21.029Z,15.00
2022-11-17T06:47:47.949Z,11.23
2022-11-17T06:50:14.699Z,15.60
2022-11-17T06:52:41.582Z,14.48
2022-11-17T06:55:08.802Z,14.95
2022-11-17T06:57:36.008Z,17.60
2022-11-17T07:00:04.151Z,18.90
2022-11-17T07:02:32.138Z,17.52
2022-11-17T07:04:59.220Z,18.77
2022-11-17T07:07:26.198Z,16.35
2022-11-17T07:09:53.040Z,18.88
2022-11-17T07:12:19.999Z,19.60
2022-11-17T07:14:48.947Z,27.55
2022-11-17T07:17:15.772Z,21.95
2022-11-17T07:19:42.698Z,23.15
2022-11-17T07:22:09.635Z,22.10
2022-11-17T07:24:36.428Z,23.85
2022-11-17T07:27:05.031Z,23.45
2022-11-17T07:29:32.457Z,22.33
2022-11-17T07:31:59.283Z,31.20
2022-11-17T07:34:26.886Z,20.52
2022-11-17T07:36:53.907Z,19.42
2022-11-17T07:39:21.955Z,20.25
2022-11-17T07:41:49.325Z,20.05
2022-11-17T07:44:16.299Z,13.90
2022-11-17T07:46:43.359Z,17.15
2022-11-17T07:49:10.530Z,18.50
2022-11-17T07:51:37.423Z,17.65
2022-11-17T07:54:04.364Z,19.75
2022-11-17T07:56:31.304Z,22.80
2022-11-17T07:58:58.048Z,19.50
2022-11-17T08:01:27.656Z,16.40
2022-11-17T08:03:54.847Z,14.55
2022-11-17T08:06:24.057Z,16.25
2022-11-17T08:08:51.875Z,10.23
2022-11-17T08:11:19.689Z,10.80
2022-11-17T08:13:50.198Z,7.40
2022-11-17T08:16:17.667Z,9.70
2022-11-17T08:18:51.831Z,6.80
2022-11-17T08:21:19.677Z,5.25
2022-11-17T08:23:51.959Z,5.28
2022-11-17T08:26:20.843Z,5.85
2022-11-17T08:28:55.209Z,5.90
2022-11-17T08:31:25.141Z,5.32
2022-11-17T08:33:51.894Z,4.93
2022-11-17T08:36:18.954Z,8.20
2022-11-17T08:38:45.986Z,5.32
2022-11-17T08:41:12.810Z,5.85
2022-11-17T08:43:45.020Z,8.13
2022-11-17T08:46:13.697Z,9.43
2022-11-17T08:48:41.090Z,9.75
2022-11-17T08:51:09.158Z,15.52
2022-11-17T08:53:36.672Z,12.95
2022-11-17T08:56:08.685Z,14.18
2022-11-17T08:58:45.223Z,11.40
2022-11-17T09:01:15.990Z,16.75
2022-11-17T09:03:45.205Z,13.35
2022-11-17T09:06:13.338Z,16.17
2022-11-17T09:08:47.852Z,12.38
2022-11-17T09:11:15.450Z,10.65
2022-11-17T09:13:42.468Z,11.32
2022-11-17T09:16:11.543Z,11.68
2022-11-17T09:18:39.961Z,8.77
2022-11-17T09:21:13.341Z,10.85
2022-11-17T09:23:43.393Z,8.65
2022-11-17T09:26:14.996Z,8.73
2022-11-17T09:28:45.130Z,8.60
2022-11-17T09:31:20.329Z,6.18
2022-11-17T09:33:49.049Z,7.53
2022-11-17T09:36:19.626Z,10.32
2022-11-17T09:38:50.902Z,7.78
2022-11-17T09:41:26.513Z,12.38
2022-11-17T09:44:17.650Z,8.23
2022-11-17T09:46:50.950Z,6.88
2022-11-17T09:49:34.480Z,7.28
2022-11-17T09:52:10.966Z,5.50
2022-11-17T09:54:59.234Z,8.82
2022-11-17T09:57:36.907Z,6.47
2022-11-17T10:00:18.892Z,6.63
2022-11-17T10:02:46.790Z,5.20
2022-11-17T10:05:35.243Z,7.35
2022-11-17T10:08:13.112Z,4.43
2022-11-17T10:10:45.945Z,5.32
2022-11-17T10:13:24.243Z,8.70
2022-11-17T10:16:13.932Z,5.63
2022-11-17T10:18:41.533Z,12.63
2022-11-17T10:21:09.530Z,12.27
2022-11-17T10:23:47.124Z,19.25
2022-11-17T10:26:16.256Z,9.88
2022-11-17T10:28:44.669Z,7.65
2022-11-17T10:31:15.227Z,6.97
2022-11-17T10:33:49.758Z,10.65
2022-11-17T10:36:29.927Z,7.88
2022-11-17T10:39:01.223Z,13.45
2022-11-17T10:41:41.680Z,14.88
2022-11-17T10:44:32.144Z,18.58
2022-11-17T10:47:08.459Z,18.92
2022-11-17T10:49:38.738Z,18.27
2022-11-17T10:52:11.853Z,14.73
2022-11-17T10:54:39.190Z,15.00
2022-11-17T10:57:20.719Z,17.70
2022-11-17T10:59:57.867Z,15.05
2022-11-17T11:02:40.454Z,14.68
2022-11-17T11:05:16.526Z,18.27
2022-11-17T11:07:43.917Z,14.80
2022-11-17T11:10:26.595Z,15.23
2022-11-17T11:13:20.928Z,16.70
2022-11-17T11:15:48.493Z,13.77
2022-11-17T11:18:18.287Z,16.48
2022-11-17T11:21:08.140Z,16.83
2022-11-17T11:23:50.236Z,18.95
2022-11-17T11:26:40.072Z,15.82
2022-11-17T11:29:31.154Z,13.50
2022-11-17T11:32:24.380Z,15.45
2022-11-17T11:35:07.153Z,13.52
2022-11-17T11:37:43.889Z,14.05
2022-11-17T11:40:31.924Z,18.23
2022-11-17T11:43:14.309Z,17.92
2022-11-17T11:45:54.834Z,20.77
2022-11-17T11:48:29.972Z,21.98
2022-11-17T11:51:05.372Z,17.45
2022-11-17T11:53:45.528Z,13.48
2022-11-17T11:56:17.618Z,16.25
2022-11-17T11:58:54.131Z,14.20
2022-11-17T12:01:23.302Z,18.17
2022-11-17T12:04:02.516Z,18.58
2022-11-17T12:07:13.678Z,19.77
2022-11-17T12:09:49.472Z,16.20
2022-11-17T12:12:20.862Z,24.17
2022-11-17T12:15:19.981Z,18.98
2022-11-17T12:17:56.920Z,20.67
2022-11-17T12:20:39.437Z,23.20
2022-11-17T12:23:33.925Z,23.58
2022-11-17T12:26:01.753Z,19.30
2022-11-17T12:28:38.149Z,19.92
2022-11-17T12:31:10.414Z,19.17
2022-11-17T12:34:00.712Z,20.30
2022-11-17T12:36:31.885Z,16.05
2022-11-17T12:39:01.225Z,16.90
2022-11-17T12:41:51.674Z,17.30
2022-11-17T12:44:32.121Z,12.23
2022-11-17T12:47:25.519Z,12.13
2022-11-17T12:50:19.066Z,11.90
2022-11-17T12:53:09.853Z,11.35
2022-11-17T12:55:56.403Z,8.95
2022-11-17T12:58:26.034Z,8.35
2022-11-17T13:01:11.394Z,10.70
2022-11-17T13:04:06.796Z,9.55
2022-11-17T13:06:35.835Z,10.23
2022-11-17T13:09:06.800Z,11.25
2022-11-17T13:11:35.362Z,10.88
2022-11-17T13:14:16.111Z,11.45
2022-11-17T13:16:49.590Z,9.60
2022-11-17T13:19:38.726Z,10.13
2022-11-17T13:22:15.262Z,9.77
2022-11-17T13:24:45.447Z,10.63
2022-11-17T13:27:27.161Z,9.23
2022-11-17T13:30:16.264Z,10.95
2022-11-17T13:32:43.368Z,9.88
2022-11-17T13:35:23.145Z,11.25
2022-11-17T13:38:11.846Z,14.45
2022-11-17T13:40:41.311Z,16.60
2022-11-17T13:43:13.923Z,12.35
2022-11-17T13:45:43.291Z,15.00
2022-11-17T13:48:33.382Z,17.63
2022-11-17T13:51:24.874Z,15.20
2022-11-17T13:54:00.808Z,25.60
2022-11-17T13:56:53.931Z,14.82
2022-11-17T13:59:27.601Z,11.10
2022-11-17T14:02:17.299Z,13.00
2022-11-17T14:05:15.255Z,14.82
2022-11-17T14:07:44.565Z,16.20
2022-11-17T14:10:31.668Z,16.65
2022-11-17T14:13:01.346Z,18.48
2022-11-17T14:15:31.630Z,11.50
2022-11-17T14:18:00.666Z,14.18
2022-11-17T14:20:34.195Z,14.85
2022-11-17T14:23:01.542Z,22.35
2022-11-17T14:25:29.667Z,20.75
2022-11-17T14:27:56.683Z,16.80
2022-11-17T14:30:23.695Z,17.33
2022-11-17T14:32:50.423Z,19.65
2022-11-17T14:37:46.650Z,23.73
2022-11-17T14:40:18.135Z,26.67
2022-11-17T14:42:47.548Z,21.33
2022-11-17T14:45:15.834Z,23.25
2022-11-17T14:47:43.044Z,23.23
2022-11-17T14:50:23.400Z,28.20
2022-11-17T14:52:50.336Z,27.23
2022-11-17T14:55:17.241Z,28.35
2022-11-17T14:57:44.376Z,35.80
2022-11-17T15:00:17.302Z,36.88
2022-11-17T15:02:47.399Z,45.28
2022-11-17T15:05:17.605Z,62.97
2022-11-17T15:07:44.371Z,64.50
2022-11-17T15:10:11.382Z,60.58
2022-11-17T15:12:38.518Z,67.18
2022-11-17T15:15:07.083Z,66.47
2022-11-17T15:17:37.440Z,48.08
2022-11-17T15:20:05.790Z,34.00
2022-11-17T15:22:32.705Z,25.27
2022-11-17T15:24:59.578Z,28.45
2022-11-17T15:27:26.664Z,28.52
2022-11-17T15:29:54.059Z,35.60
2022-11-17T15:32:20.894Z,37.00
2022-11-17T15:34:48.291Z,25.23
2022-11-17T15:37:14.972Z,22.00
2022-11-17T15:39:41.900Z,29.00
2022-11-17T15:42:09.100Z,24.50
2022-11-17T15:44:37.216Z,18.20
2022-11-17T15:47:04.127Z,23.65
2022-11-17T15:49:30.940Z,20.10
2022-11-17T15:51:57.666Z,30.33
2022-11-17T15:54:26.641Z,18.45
2022-11-17T15:56:53.590Z,16.63
2022-11-17T15:59:20.762Z,17.90
2022-11-17T16:04:43.821Z,13.95
2022-11-17T16:07:13.244Z,17.58
2022-11-17T16:09:47.566Z,21.60
2022-11-17T16:12:31.752Z,20.23
2022-11-17T16:14:58.599Z,21.33
2022-11-17T16:17:25.257Z,20.17
2022-11-17T16:19:52.450Z,17.55
2022-11-17T16:22:19.328Z,16.10
2022-11-17T16:24:46.047Z,15.02
2022-11-17T16:27:13.739Z,12.80
2022-11-17T16:29:41.020Z,11.45
2022-11-17T16:32:08.457Z,11.85
2022-11-17T16:34:36.766Z,12.07
2022-11-17T16:37:03.691Z,11.35
2022-11-17T16:39:30.532Z,10.05
2022-11-17T16:41:59.602Z,12.15
2022-11-17T16:44:26.612Z,13.02
2022-11-17T16:46:53.395Z,14.07
2022-11-17T16:49:20.755Z,19.15
2022-11-17T16:51:49.570Z,13.48
2022-11-17T16:54:17.882Z,12.77
2022-11-17T16:59:37.422Z,13.95
2022-11-17T17:02:04.486Z,20.73
2022-11-17T17:04:31.413Z,12.80
2022-11-17T17:06:58.469Z,12.15
2022-11-17T17:09:28.024Z,10.82
2022-11-17T17:11:55.020Z,13.07
2022-11-17T17:14:21.772Z,13.80
2022-11-17T17:16:49.025Z,12.38
2022-11-17T17:19:16.646Z,11.20
2022-11-17T17:21:44.189Z,12.30
2022-11-17T17:24:11.343Z,15.50
2022-11-17T17:26:39.984Z,12.48
2022-11-17T17:29:07.795Z,11.43
2022-11-17T17:31:40.041Z,11.68
2022-11-17T17:34:13.480Z,9.90
2022-11-17T17:36:40.489Z,9.73
2022-11-17T17:39:07.995Z,11.68
2022-11-17T17:41:39.324Z,9.38
2022-11-17T17:44:07.700Z,11.15
2022-11-17T17:47:01.699Z,12.15
2022-11-17T17:49:30.692Z,8.43
2022-11-17T17:52:15.025Z,10.77
2022-11-17T17:54:42.395Z,8.98
2022-11-17T17:57:10.574Z,8.00
2022-11-17T17:59:37.601Z,8.30
2022-11-17T18:02:05.606Z,10.00
2022-11-17T18:04:32.397Z,7.45
2022-11-17T18:07:00.331Z,8.05
2022-11-17T18:09:27.884Z,5.20
2022-11-17T18:11:54.874Z,7.00
2022-11-17T18:14:24.822Z,5.75
2022-11-17T18:16:51.921Z,7.72
2022-11-17T18:19:19.411Z,5.85
2022-11-17T18:21:46.497Z,6.53
2022-11-17T18:24:13.840Z,8.32
2022-11-17T18:26:41.625Z,10.82
2022-11-17T18:29:13.705Z,8.43
2022-11-17T18:31:40.929Z,8.90
2022-11-17T18:34:14.433Z,5.45
2022-11-17T18:36:41.717Z,5.68
2022-11-17T18:39:09.237Z,6.18
2022-11-17T18:41:36.516Z,7.70
2022-11-17T18:44:04.171Z,7.03
2022-11-17T18:46:32.721Z,6.03
2022-11-17T18:49:00.339Z,6.47
2022-11-17T18:51:30.641Z,7.07
2022-11-17T18:53:59.403Z,7.22
2022-11-17T18:56:28.772Z,6.18
2022-11-17T18:58:55.730Z,10.57
2022-11-17T19:01:24.963Z,6.30
2022-11-17T19:03:53.624Z,7.40
2022-11-17T19:06:22.157Z,14.32
2022-11-17T19:08:50.127Z,9.18
2022-11-17T19:11:19.214Z,11.52
2022-11-17T19:13:46.467Z,12.32
2022-11-17T19:16:25.405Z,6.60
2022-11-17T19:18:54.963Z,6.65
2022-11-17T19:21:30.700Z,6.90
2022-11-17T19:24:00.148Z,8.02
2022-11-17T19:26:29.563Z,8.32
2022-11-17T19:28:58.566Z,9.38
2022-11-17T19:31:26.205Z,10.45
2022-11-17T19:33:54.341Z,12.90
2022-11-17T19:36:24.138Z,13.90
2022-11-17T19:38:52.743Z,19.77
2022-11-17T19:41:25.833Z,22.33
2022-11-17T19:43:57.588Z,14.07
2022-11-17T19:46:26.291Z,10.75
2022-11-17T19:48:53.666Z,12.27
2022-11-17T19:51:29.429Z,8.50
2022-11-17T19:53:59.066Z,10.60
2022-11-17T19:56:26.453Z,16.70
2022-11-17T19:58:54.135Z,13.68
2022-11-17T20:01:26.775Z,10.93
2022-11-17T20:03:54.364Z,10.55
2022-11-17T20:06:27.301Z,9.82
2022-11-17T20:08:55.448Z,7.25
2022-11-17T20:11:26.461Z,9.18
2022-11-17T20:13:57.164Z,9.52
2022-11-17T20:16:26.287Z,10.52
2022-11-17T20:18:58.462Z,10.63
2022-11-17T20:21:26.759Z,11.95
2022-11-17T20:23:54.910Z,9.60
2022-11-17T20:26:29.148Z,12.57
2022-11-17T20:28:57.874Z,8.43
2022-11-17T20:31:27.163Z,13.30
2022-11-17T20:34:01.043Z,13.13
2022-11-17T20:36:29.473Z,13.70
2022-11-17T20:39:01.932Z,15.13
2022-11-17T20:41:29.291Z,15.90
2022-11-17T20:43:57.547Z,19.45
2022-11-17T20:46:26.870Z,23.35
2022-11-17T20:48:55.414Z,30.58
2022-11-17T20:54:31.344Z,24.20
2022-11-17T20:57:22.425Z,22.23
2022-11-17T20:59:53.376Z,29.52
2022-11-17T21:02:20.898Z,20.77
2022-11-17T21:04:51.614Z,27.98
2022-11-17T21:07:21.831Z,19.20
2022-11-17T21:09:52.475Z,20.67
2022-11-17T21:12:19.880Z,7.95
2022-11-17T21:14:49.165Z,6.72
2022-11-17T21:17:34.482Z,8.23
2022-11-17T21:20:02.203Z,7.63
2022-11-17T21:22:29.108Z,6.63
2022-11-17T21:24:55.818Z,5.28
2022-11-17T21:27:24.032Z,7.38
2022-11-17T21:29:50.784Z,8.00
2022-11-17T21:32:17.693Z,7.13
2022-11-17T21:34:49.674Z,6.45
2022-11-17T21:37:16.771Z,9.45
2022-11-17T21:39:44.031Z,7.60
2022-11-17T21:42:11.616Z,5.20
2022-11-17T21:44:39.552Z,12.00
2022-11-17T21:47:08.085Z,8.07
2022-11-17T21:49:35.323Z,4.70
2022-11-17T21:52:02.295Z,4.93
2022-11-17T21:54:29.127Z,11.77
2022-11-17T21:56:56.467Z,17.73
2022-11-17T21:59:23.428Z,20.70
2022-11-17T22:01:50.519Z,22.77
2022-11-17T22:04:19.515Z,12.35
2022-11-17T22:06:46.769Z,18.83
2022-11-17T22:09:13.743Z,21.30
2022-11-17T22:11:41.216Z,8.70
2022-11-17T22:14:11.189Z,9.18
2022-11-17T22:16:59.501Z,11.07
2022-11-17T22:19:28.812Z,14.90
2022-11-17T22:21:55.771Z,24.65
2022-11-17T22:24:23.214Z,17.80
2022-11-17T22:26:51.754Z,18.45
2022-11-17T22:29:21.134Z,22.05
2022-11-17T22:31:49.604Z,12.88
2022-11-17T22:34:17.853Z,11.57
2022-11-17T22:36:45.103Z,22.38
2022-11-17T22:39:12.681Z,25.27
2022-11-17T22:41:42.998Z,23.75
2022-11-17T22:44:16.552Z,19.65
2022-11-17T22:46:44.163Z,18.00
2022-11-17T22:49:12.280Z,19.77
2022-11-17T22:51:57.929Z,24.58
2022-11-17T22:54:27.176Z,17.50
2022-11-17T22:56:57.977Z,17.88
2022-11-17T22:59:26.934Z,24.77
2022-11-17T23:01:58.551Z,22.20
2022-11-17T23:04:25.958Z,19.40
2022-11-17T23:06:53.721Z,19.38
2022-11-17T23:09:23.176Z,18.65
2022-11-17T23:11:50.469Z,19.85
2022-11-17T23:14:17.421Z,19.13
2022-11-17T23:16:44.542Z,17.98
2022-11-17T23:19:13.373Z,16.23
2022-11-17T23:21:40.794Z,18.20
2022-11-17T23:24:13.172Z,16.55
2022-11-17T23:26:41.208Z,15.80
2022-11-17T23:29:11.699Z,14.13
2022-11-17T23:31:39.278Z,12.93
2022-11-17T23:34:10.120Z,14.15
2022-11-17T23:36:40.618Z,15.13
2022-11-17T23:39:08.212Z,16.75
2022-11-17T23:41:45.795Z,14.85
2022-11-17T23:46:57.046Z,10.35
2022-11-17T23:49:37.519Z,10.30
2022-11-17T23:52:15.616Z,13.57
